Time;durP1;ratioP1;P1;durP2;ratioP2;P2;SDS_P1;SDS_P2;PMS_P1;PMS_P2;Temp;Humidity;BMP_temperature;BMP_pressure;BME280_temperature;BME280_humidity;BME280_pressure;Samples;Min_cycle;Max_cycle;Signal;HPM_P1;HPM_P2
2023/06/11 00:01:57;;;;;;;6.87;6.27;;;;;;;20.62;57.47;98822.50;4956369;28;43742;-74
2023/06/11 00:04:26;;;;;;;7.47;6.87;;;;;;;20.58;56.89;98810.34;4940032;28;41243;-74
2023/06/11 00:06:54;;;;;;;6.87;6.27;;;;;;;20.54;57.51;98812.50;4956585;28;39050;-75
2023/06/11 00:09:25;;;;;;;6.20;5.67;;;;;;;20.50;57.63;98813.00;4956662;28;42776;-74
2023/06/11 00:11:53;;;;;;;7.43;6.73;;;;;;;20.47;57.74;98814.16;4956943;28;42352;-74
2023/06/11 00:14:22;;;;;;;7.00;6.40;;;;;;;20.44;57.98;98814.47;4939756;28;41138;-73
2023/06/11 00:16:49;;;;;;;7.27;6.67;;;;;;;20.39;58.16;98817.66;4974030;28;41032;-74
2023/06/11 00:19:19;;;;;;;7.73;6.93;;;;;;;20.37;58.68;98816.13;4956281;28;40789;-75
2023/06/11 00:21:48;;;;;;;7.80;7.10;;;;;;;20.26;58.75;98801.06;4973531;28;42650;-74
2023/06/11 00:24:16;;;;;;;6.37;5.87;;;;;;;20.31;58.78;98820.25;4939768;28;41546;-74
2023/06/11 00:26:45;;;;;;;6.60;6.10;;;;;;;20.28;58.79;98812.50;4956290;28;40904;-75
2023/06/11 00:29:13;;;;;;;6.17;5.57;;;;;;;20.15;58.43;98800.50;4940246;28;40664;-75
2023/06/11 00:31:41;;;;;;;6.63;6.03;;;;;;;20.23;58.63;98814.81;4956490;28;43827;-74
2023/06/11 00:34:08;;;;;;;6.87;6.27;;;;;;;20.19;58.87;98813.44;4957394;28;42365;-74
2023/06/11 00:36:36;;;;;;;6.70;6.20;;;;;;;20.02;58.78;98799.06;4974501;28;39969;-73
2023/06/11 00:39:05;;;;;;;7.43;6.80;;;;;;;20.12;59.92;98819.63;4957036;28;41304;-74
2023/06/11 00:41:33;;;;;;;7.43;6.83;;;;;;;20.06;60.38;98810.31;4957133;28;43392;-74
2023/06/11 00:44:03;;;;;;;7.30;6.60;;;;;;;20.05;60.61;98814.00;4957225;28;42228;-74
2023/06/11 00:46:31;;;;;;;7.53;6.77;;;;;;;20.02;60.22;98820.56;4957277;28;40891;-74
2023/06/11 00:49:00;;;;;;;7.30;6.67;;;;;;;19.97;60.68;98814.81;4940734;28;43039;-74
2023/06/11 00:51:28;;;;;;;7.50;6.80;;;;;;;19.96;60.44;98823.03;4956913;28;41800;-74
2023/06/11 00:53:56;;;;;;;7.03;6.43;;;;;;;19.93;60.72;98820.63;4974228;28;43169;-74
2023/06/11 00:56:26;;;;;;;7.93;7.13;;;;;;;19.92;61.20;98824.31;4940723;28;40462;-74
2023/06/11 00:58:54;;;;;;;7.13;6.53;;;;;;;19.89;62.01;98819.28;4971321;28;41720;-74
2023/06/11 01:01:29;;;;;;;7.73;7.03;;;;;;;19.87;61.31;98821.28;4972893;28;43834;-75
2023/06/11 01:04:00;;;;;;;7.63;6.90;;;;;;;19.76;61.42;98808.94;4939474;28;40943;-74
2023/06/11 01:06:33;;;;;;;7.40;6.63;;;;;;;19.84;61.53;98816.22;4952978;28;40951;-74
2023/06/11 01:09:03;;;;;;;6.83;6.17;;;;;;;19.79;61.74;98819.34;4939686;28;40935;-74
2023/06/11 01:11:35;;;;;;;8.23;7.53;;;;;;;19.77;62.00;98820.53;4952857;28;42779;-74
2023/06/11 01:14:06;;;;;;;10.40;8.10;;;;;;;19.71;62.10;98816.59;4939560;28;42553;-74
2023/06/11 01:16:46;;;;;;;7.43;6.80;;;;;;;19.69;62.30;98823.97;4939514;28;39861;-75
2023/06/11 01:19:32;;;;;;;8.00;7.20;;;;;;;19.64;62.16;98821.75;4939624;28;40878;-74
2023/06/11 01:22:03;;;;;;;7.23;6.63;;;;;;;19.59;62.54;98825.88;4939005;28;41775;-74
2023/06/11 01:24:45;;;;;;;6.87;6.27;;;;;;;19.56;62.71;98829.72;4953164;28;42947;-75
2023/06/11 01:27:22;;;;;;;7.63;7.03;;;;;;;19.54;62.87;98834.41;4952851;28;39911;-74
2023/06/11 01:29:54;;;;;;;6.93;6.23;;;;;;;19.47;62.63;98829.78;4939239;28;41070;-74
2023/06/11 01:32:27;;;;;;;7.70;7.00;;;;;;;19.47;62.88;98836.00;4939747;28;41887;-74
2023/06/11 01:35:01;;;;;;;7.17;6.57;;;;;;;19.46;62.77;98839.66;4940170;28;41261;-74
2023/06/11 01:37:32;;;;;;;7.33;6.73;;;;;;;19.38;62.48;98832.38;4955771;28;39906;-74
2023/06/11 01:40:01;;;;;;;7.73;7.13;;;;;;;19.42;62.36;98843.66;4954200;28;41855;-74
2023/06/11 01:42:41;;;;;;;7.50;6.80;;;;;;;19.38;62.04;98843.13;4940129;28;42831;-74
2023/06/11 01:45:11;;;;;;;7.90;7.20;;;;;;;19.37;62.13;98845.97;4956300;28;43092;-74
2023/06/11 01:47:40;;;;;;;7.10;6.37;;;;;;;19.35;62.29;98846.09;4940158;28;38948;-74
2023/06/11 01:50:09;;;;;;;7.00;6.40;;;;;;;19.32;62.29;98842.88;4940041;28;41760;-74
2023/06/11 01:52:38;;;;;;;7.33;6.70;;;;;;;19.18;62.41;98830.81;4955995;28;43543;-74
2023/06/11 01:55:07;;;;;;;8.13;7.43;;;;;;;19.26;62.24;98843.50;4955815;28;43239;-74
2023/06/11 01:57:36;;;;;;;6.80;6.30;;;;;;;19.23;62.17;98846.47;4956174;28;39979;-74
2023/06/11 02:00:05;;;;;;;7.50;6.80;;;;;;;19.19;62.47;98843.22;4955910;28;43043;-74
2023/06/11 02:02:46;;;;;;;9.00;8.20;;;;;;;19.16;62.79;98842.72;4968490;28;43620;-74
2023/06/11 02:05:16;;;;;;;9.00;7.30;;;;;;;19.12;63.06;98842.16;4938819;28;41154;-74
2023/06/11 02:07:43;;;;;;;7.33;6.73;;;;;;;19.10;62.66;98843.28;4938900;28;41000;-74
2023/06/11 02:10:11;;;;;;;7.20;6.57;;;;;;;19.07;63.37;98838.22;4938669;28;40549;-74
2023/06/11 02:12:39;;;;;;;8.93;8.23;;;;;;;19.04;62.76;98843.91;4972184;28;42935;-74
2023/06/11 02:15:08;;;;;;;7.93;7.13;;;;;;;19.00;62.90;98846.88;4938259;28;41741;-74
2023/06/11 02:17:36;;;;;;;6.73;6.13;;;;;;;18.96;62.53;98850.84;4954941;28;40165;-74
2023/06/11 02:20:06;;;;;;;7.40;6.70;;;;;;;18.92;62.42;98849.44;4954852;28;41730;-74
2023/06/11 02:22:34;;;;;;;6.73;6.23;;;;;;;18.91;62.87;98853.16;4951793;28;42790;-74
2023/06/11 02:25:03;;;;;;;7.40;6.70;;;;;;;18.87;62.57;98851.75;4954700;28;42089;-74
2023/06/11 02:27:31;;;;;;;7.10;6.57;;;;;;;18.86;62.73;98851.91;4938793;28;38875;-74
2023/06/11 02:30:01;;;;;;;7.50;6.90;;;;;;;18.82;62.67;98855.84;4937901;28;42022;-74
2023/06/11 02:32:31;;;;;;;7.97;7.27;;;;;;;18.76;62.65;98854.63;4938433;28;42650;-74
2023/06/11 02:34:59;;;;;;;6.70;6.20;;;;;;;18.46;63.02;98814.59;4954934;28;43837;-74
2023/06/11 02:37:28;;;;;;;7.80;7.20;;;;;;;18.72;63.32;98853.22;4939364;28;39998;-73
2023/06/11 02:39:56;;;;;;;6.97;6.27;;;;;;;18.68;63.75;98854.50;4955202;28;42851;-74
2023/06/11 02:42:24;;;;;;;7.63;7.03;;;;;;;18.65;64.21;98844.09;4955525;28;43716;-74
2023/06/11 02:44:51;;;;;;;8.63;7.83;;;;;;;18.55;64.04;98827.13;4955175;28;42513;-74
2023/06/11 02:47:19;;;;;;;8.57;7.87;;;;;;;18.61;64.30;98838.16;4955375;28;40383;-74
2023/06/11 02:49:46;;;;;;;8.57;7.87;;;;;;;18.59;64.23;98845.50;4953887;28;42200;-74
2023/06/11 02:52:14;;;;;;;8.20;7.40;;;;;;;18.58;64.00;98845.66;4939059;28;42851;-73
2023/06/11 02:58:38;;;;;;;8.13;7.13;;;;;;;18.49;64.11;98835.78;4955029;28;39868;-73
2023/06/11 03:01:05;;;;;;;8.13;7.23;;;;;;;18.40;63.65;98828.63;4954550;28;41518;-74
2023/06/11 03:03:33;;;;;;;8.57;7.87;;;;;;;18.43;63.81;98839.88;4954239;28;43547;-74
2023/06/11 03:06:01;;;;;;;7.47;6.77;;;;;;;18.40;63.85;98839.34;4953763;28;42277;-74
2023/06/11 03:08:29;;;;;;;8.10;7.30;;;;;;;18.36;64.57;98843.28;4954005;28;38917;-74
2023/06/11 03:10:57;;;;;;;7.27;6.67;;;;;;;18.34;64.04;98850.63;4953938;28;42803;-74
2023/06/11 03:13:25;;;;;;;7.13;6.53;;;;;;;18.30;64.18;98848.22;4938083;28;41948;-74
2023/06/11 03:15:56;;;;;;;7.93;7.30;;;;;;;18.28;64.18;98850.22;4954048;28;43216;-74
2023/06/11 03:18:24;;;;;;;6.63;6.13;;;;;;;18.25;64.06;98844.31;4938186;28;40174;-74
2023/06/11 03:20:52;;;;;;;7.63;7.00;;;;;;;18.21;63.88;98851.78;4937243;28;40815;-74
2023/06/11 03:23:20;;;;;;;6.87;6.30;;;;;;;18.21;64.23;98862.50;4937879;28;41660;-74
2023/06/11 03:25:48;;;;;;;6.73;6.13;;;;;;;18.16;64.09;98859.44;4953867;28;42374;-74
2023/06/11 03:28:16;;;;;;;7.00;6.47;;;;;;;18.15;64.17;98863.09;4937914;28;39928;-74
2023/06/11 03:30:44;;;;;;;6.80;6.30;;;;;;;18.15;64.32;98860.41;4953663;28;41844;-74
2023/06/11 03:33:13;;;;;;;7.63;6.83;;;;;;;18.14;64.36;98853.38;4971993;28;42631;-74
2023/06/11 03:35:41;;;;;;;6.60;6.00;;;;;;;18.14;64.20;98865.91;4954290;28;42263;-74
2023/06/11 03:38:20;;;;;;;6.83;6.20;;;;;;;18.15;63.91;98863.09;4939022;28;40249;-74
2023/06/11 03:40:47;;;;;;;7.50;6.87;;;;;;;18.07;63.69;98860.25;4938500;28;43295;-74
2023/06/11 03:43:15;;;;;;;7.13;6.53;;;;;;;18.17;63.76;98871.00;4938641;28;41758;-73
2023/06/11 03:45:43;;;;;;;7.03;6.33;;;;;;;18.20;64.13;98876.91;4938222;28;41322;-74
2023/06/11 03:48:12;;;;;;;7.53;6.83;;;;;;;18.21;63.96;98875.91;4954845;28;41866;-74
2023/06/11 03:50:40;;;;;;;7.03;6.43;;;;;;;18.24;64.07;98883.66;4938121;28;42538;-74
2023/06/11 03:53:07;;;;;;;7.43;6.73;;;;;;;18.26;63.66;98876.34;4971765;28;43010;-74
2023/06/11 03:55:35;;;;;;;6.93;6.33;;;;;;;18.30;64.29;98877.72;4954163;28;42106;-74
2023/06/11 03:58:03;;;;;;;7.90;7.20;;;;;;;18.33;64.69;98881.94;4954537;28;40058;-74
2023/06/11 04:00:32;;;;;;;7.17;6.57;;;;;;;18.34;64.28;98872.91;4954873;28;41693;-75
2023/06/11 04:03:00;;;;;;;7.47;6.83;;;;;;;18.44;64.14;98878.25;4939741;28;41712;-75
2023/06/11 04:05:37;;;;;;;6.87;6.27;;;;;;;18.51;64.07;98890.13;4955708;28;43352;-75
2023/06/11 04:08:05;;;;;;;6.90;6.30;;;;;;;18.56;64.20;98887.81;4940778;28;40036;-75
2023/06/11 04:10:33;;;;;;;8.67;6.47;;;;;;;18.52;63.76;98875.72;4940446;28;40738;-75
2023/06/11 04:13:01;;;;;;;7.60;6.90;;;;;;;18.69;63.37;98893.75;4940508;28;43342;-75
2023/06/11 04:15:28;;;;;;;6.90;6.20;;;;;;;18.75;63.31;98898.53;4956727;28;43017;-75
2023/06/11 04:17:58;;;;;;;6.83;6.23;;;;;;;18.80;63.43;98892.72;4956585;28;39105;-75
2023/06/11 04:20:27;;;;;;;7.53;6.93;;;;;;;18.82;63.66;98888.91;4955976;28;41853;-74
2023/06/11 04:22:56;;;;;;;7.10;6.50;;;;;;;18.89;63.16;98900.75;4956543;28;43283;-75
2023/06/11 04:25:25;;;;;;;7.33;6.70;;;;;;;18.94;63.07;98897.63;4956497;28;42878;-75
2023/06/11 04:27:53;;;;;;;7.47;6.83;;;;;;;18.99;63.26;98906.09;4956522;28;40104;-75
2023/06/11 04:30:21;;;;;;;8.40;7.70;;;;;;;19.02;63.12;98906.63;4956264;28;42533;-75
2023/06/11 04:32:54;;;;;;;7.57;6.97;;;;;;;19.10;63.18;98899.66;4953527;28;42919;-74
2023/06/11 04:35:25;;;;;;;8.27;7.47;;;;;;;19.19;63.14;98898.78;4955770;28;42075;-75
2023/06/11 04:37:55;;;;;;;7.60;6.90;;;;;;;19.27;62.70;98901.56;4941172;28;40896;-75
2023/06/11 04:40:27;;;;;;;8.70;7.93;;;;;;;19.33;63.11;98898.28;4955840;28;41729;-74
2023/06/11 04:42:57;;;;;;;8.17;7.57;;;;;;;19.27;62.84;98870.19;4957366;28;43216;-75
2023/06/11 04:45:26;;;;;;;7.60;6.80;;;;;;;19.48;62.73;98893.25;4956874;28;42324;-74
2023/06/11 04:47:54;;;;;;;8.47;7.67;;;;;;;19.56;62.51;98893.34;4940617;28;38829;-75
2023/06/11 04:50:22;;;;;;;7.63;7.00;;;;;;;19.64;62.28;98896.16;4939115;28;40749;-75
2023/06/11 04:52:56;;;;;;;8.27;7.57;;;;;;;19.74;61.90;98896.91;4940153;28;42800;-74
2023/06/11 04:55:26;;;;;;;7.43;6.83;;;;;;;19.72;62.05;98891.69;4939655;28;43625;-75
2023/06/11 04:57:56;;;;;;;8.43;7.73;;;;;;;19.88;62.06;98904.44;4939947;28;39263;-74
2023/06/11 05:00:26;;;;;;;8.27;7.57;;;;;;;19.96;61.38;98900.97;4954332;28;42566;-75
2023/06/11 05:02:56;;;;;;;8.03;7.27;;;;;;;20.06;61.42;98901.75;4956156;28;43683;-75
2023/06/11 05:05:23;;;;;;;7.63;7.00;;;;;;;20.17;61.07;98904.19;4939420;28;42418;-75
2023/06/11 05:07:51;;;;;;;6.97;6.27;;;;;;;20.28;60.86;98909.31;4939799;28;39057;-75
2023/06/11 05:10:19;;;;;;;7.27;6.70;;;;;;;20.37;60.86;98905.75;4939632;28;40714;-75
2023/06/11 05:12:47;;;;;;;7.33;6.70;;;;;;;20.46;60.59;98903.09;4954761;28;42521;-75
2023/06/11 05:15:17;;;;;;;7.10;6.57;;;;;;;20.52;60.43;98902.50;4939724;28;41898;-75
2023/06/11 05:17:45;;;;;;;7.03;6.43;;;;;;;20.66;60.07;98909.97;4939591;28;39117;-74
2023/06/11 05:20:14;;;;;;;7.57;6.87;;;;;;;20.75;59.78;98904.50;4938989;28;42042;-75
2023/06/11 05:22:42;;;;;;;8.03;7.33;;;;;;;20.83;59.42;98905.53;4952675;28;43051;-75
2023/06/11 05:25:14;;;;;;;7.97;7.27;;;;;;;20.95;59.38;98913.16;4939231;28;42775;-75
2023/06/11 05:27:42;;;;;;;8.00;7.20;;;;;;;21.03;59.43;98913.22;4939790;28;39871;-75
2023/06/11 05:30:11;;;;;;;8.40;7.60;;;;;;;21.12;59.08;98912.25;4955379;28;40806;-75
2023/06/11 05:32:40;;;;;;;7.17;6.57;;;;;;;21.22;58.91;98922.09;4955931;28;42683;-74
2023/06/11 05:35:09;;;;;;;8.27;7.47;;;;;;;21.36;58.56;98918.78;4956268;28;42330;-75
2023/06/11 05:37:38;;;;;;;7.67;7.07;;;;;;;21.49;58.64;98920.03;4956106;28;38840;-75
2023/06/11 05:40:09;;;;;;;8.70;8.00;;;;;;;21.62;57.91;98919.56;4939947;28;40661;-75
2023/06/11 05:42:36;;;;;;;8.50;7.60;;;;;;;21.71;57.68;98918.56;4973504;28;42462;-74
2023/06/11 05:45:05;;;;;;;8.70;7.97;;;;;;;21.79;57.51;98926.66;4956007;28;42937;-74
2023/06/11 05:47:34;;;;;;;8.33;7.53;;;;;;;21.88;56.88;98924.84;4956348;28;39914;-75
2023/06/11 05:50:04;;;;;;;8.43;7.73;;;;;;;21.98;56.98;98922.81;4939727;28;41738;-74
2023/06/11 05:52:34;;;;;;;7.40;6.80;;;;;;;22.04;56.93;98907.84;4939707;28;41712;-75
2023/06/11 05:55:03;;;;;;;7.50;6.80;;;;;;;22.23;56.66;98923.72;4955951;28;41269;-74
2023/06/11 05:57:30;;;;;;;7.57;6.87;;;;;;;22.37;56.45;98928.44;4955413;28;39982;-75
2023/06/11 05:59:59;;;;;;;8.03;7.33;;;;;;;22.52;55.99;98934.81;4937959;28;40938;-75
2023/06/11 06:02:27;;;;;;;8.00;7.20;;;;;;;22.59;56.13;98924.22;4955064;28;43698;-75
2023/06/11 06:04:55;;;;;;;8.03;7.30;;;;;;;22.70;55.95;98934.66;4938835;28;41360;-75
2023/06/11 06:07:24;;;;;;;8.60;7.70;;;;;;;22.60;55.22;98906.16;4955025;28;40156;-75
2023/06/11 06:09:54;;;;;;;7.47;6.87;;;;;;;22.94;54.84;98944.59;4938696;28;41847;-75
2023/06/11 06:12:21;;;;;;;7.47;6.70;;;;;;;23.09;54.65;98942.03;4938842;28;41753;-75
2023/06/11 06:14:49;;;;;;;7.83;7.13;;;;;;;23.24;54.21;98937.59;4954319;28;41525;-75
2023/06/11 06:17:18;;;;;;;7.80;7.10;;;;;;;23.41;53.74;98947.31;4938636;28;40581;-75
2023/06/11 06:19:46;;;;;;;8.03;7.33;;;;;;;23.58;53.90;98948.13;4938417;28;42258;-74
2023/06/11 06:22:16;;;;;;;8.03;7.40;;;;;;;23.73;53.32;98957.19;4938485;28;41733;-74
2023/06/11 06:24:45;;;;;;;7.47;6.80;;;;;;;23.90;52.82;98952.50;4954126;28;42509;-74
2023/06/11 06:27:14;;;;;;;7.83;7.13;;;;;;;24.05;52.12;98966.13;4938606;28;39912;-74
2023/06/11 06:29:43;;;;;;;7.70;7.03;;;;;;;24.24;51.68;98971.09;4938600;28;40830;-74
2023/06/11 06:32:11;;;;;;;8.00;7.30;;;;;;;24.35;50.81;98962.56;4954857;28;43614;-74
2023/06/11 06:34:40;;;;;;;7.97;7.17;;;;;;;24.49;51.50;98969.03;4938987;28;41099;-74
2023/06/11 06:37:09;;;;;;;7.80;7.20;;;;;;;24.59;50.80;98970.50;4972846;28;40131;-73
2023/06/11 06:39:37;;;;;;;8.07;7.40;;;;;;;24.80;49.73;98985.19;4955037;28;42715;-73
2023/06/11 06:42:07;;;;;;;7.97;7.13;;;;;;;24.91;48.58;99001.00;4955394;28;41602;-73
2023/06/11 06:44:40;;;;;;;7.47;6.87;;;;;;;25.10;48.88;98995.06;4953008;28;42997;-74
2023/06/11 06:47:08;;;;;;;7.10;6.50;;;;;;;25.35;48.14;98996.50;4955519;28;39933;-74
2023/06/11 06:49:38;;;;;;;8.80;7.93;;;;;;;25.49;47.42;99000.25;4953447;28;42821;-73
2023/06/11 06:52:09;;;;;;;7.57;6.93;;;;;;;25.58;47.67;98998.28;4954129;28;42824;-74
2023/06/11 06:54:36;;;;;;;8.40;7.70;;;;;;;25.63;47.13;98994.00;4937751;28;40940;-74
2023/06/11 06:57:07;;;;;;;7.63;7.03;;;;;;;25.74;47.50;98995.38;4954466;28;39648;-73
2023/06/11 06:59:34;;;;;;;7.43;6.83;;;;;;;25.86;47.33;98995.75;4937776;28;40659;-74
2023/06/11 07:02:02;;;;;;;7.67;7.07;;;;;;;25.97;46.76;98996.09;4954155;28;42801;-75
2023/06/11 07:04:30;;;;;;;8.73;6.90;;;;;;;26.13;46.93;98993.16;4937794;28;41393;-74
2023/06/11 07:06:58;;;;;;;9.20;7.07;;;;;;;26.26;46.60;98986.19;4938022;28;39788;-74
2023/06/11 07:09:25;;;;;;;11.53;7.90;;;;;;;26.40;45.04;99010.63;4937728;28;40782;-74
2023/06/11 07:11:53;;;;;;;8.00;6.67;;;;;;;26.59;46.02;98998.25;4953807;28;42478;-74
2023/06/11 07:14:22;;;;;;;7.33;6.63;;;;;;;26.75;44.59;99008.84;4953859;28;42337;-74
2023/06/11 07:16:50;;;;;;;7.43;6.83;;;;;;;26.89;44.84;99003.53;4938037;28;39259;-74
2023/06/11 07:19:17;;;;;;;7.70;7.00;;;;;;;27.05;44.52;99006.00;4971062;28;42644;-75
2023/06/11 07:21:45;;;;;;;7.50;7.00;;;;;;;27.14;44.35;99007.53;4953521;28;42683;-75
2023/06/11 07:24:13;;;;;;;8.87;7.20;;;;;;;27.26;44.09;99005.09;4937880;28;41242;-74
2023/06/11 07:26:42;;;;;;;7.10;6.50;;;;;;;27.42;43.91;99011.06;4937990;28;38962;-75
2023/06/11 07:29:10;;;;;;;8.37;6.50;;;;;;;27.67;42.86;99013.34;4937248;28;40581;-75
2023/06/11 07:31:40;;;;;;;7.77;6.57;;;;;;;28.07;41.17;99030.66;4953714;28;43777;-74
2023/06/11 07:34:08;;;;;;;6.90;6.33;;;;;;;28.52;39.81;99023.72;4938040;28;42308;-75
2023/06/11 07:36:36;;;;;;;7.27;6.63;;;;;;;29.04;39.90;99031.16;4956655;28;41327;-74
2023/06/11 07:39:06;;;;;;;7.07;6.47;;;;;;;29.43;38.80;99038.47;4957775;28;41624;-74
2023/06/11 07:41:34;;;;;;;7.43;6.57;;;;;;;29.71;38.00;99032.75;4941832;28;41596;-74
2023/06/11 07:44:02;;;;;;;6.60;6.10;;;;;;;29.80;38.25;99033.34;4958109;28;41909;-75
2023/06/11 07:46:30;;;;;;;7.37;6.67;;;;;;;29.99;37.99;99035.22;4941941;28;38629;-75
2023/06/11 07:48:58;;;;;;;7.70;6.53;;;;;;;30.47;36.76;99052.00;4958029;28;42311;-73
2023/06/11 07:51:26;;;;;;;7.20;6.50;;;;;;;30.93;33.90;99057.19;4957455;28;43850;-74
2023/06/11 07:54:00;;;;;;;7.63;6.83;;;;;;;32.08;33.25;99065.81;4957333;28;41501;-75
2023/06/11 07:56:28;;;;;;;7.10;6.50;;;;;;;33.39;30.68;99085.06;4957918;28;40880;-75
2023/06/11 07:58:56;;;;;;;7.23;6.50;;;;;;;34.37;29.23;99091.72;4957804;28;42492;-74
2023/06/11 08:01:23;;;;;;;6.37;5.87;;;;;;;35.39;28.13;99088.94;4974223;28;43637;-76
2023/06/11 08:03:51;;;;;;;6.43;5.93;;;;;;;36.20;26.83;99107.53;4940802;28;42447;-77
2023/06/11 08:06:20;;;;;;;6.00;5.47;;;;;;;36.77;26.12;99098.88;4956599;28;38870;-76
2023/06/11 08:08:48;;;;;;;6.07;5.57;;;;;;;37.71;25.97;99085.34;4974114;28;41924;-76
2023/06/11 08:11:16;;;;;;;6.23;5.63;;;;;;;38.53;23.98;99114.34;4973868;28;42609;-76
2023/06/11 08:13:44;;;;;;;6.07;5.50;;;;;;;39.42;23.27;99108.44;4956818;28;42458;-76
2023/06/11 08:16:11;;;;;;;6.40;5.45;;;;;;;40.01;21.58;99107.81;4957007;28;40680;-77
2023/06/11 08:18:39;;;;;;;5.38;4.97;;;;;;;40.49;21.48;99119.31;4956773;28;41710;-77
2023/06/11 08:21:07;;;;;;;6.60;5.15;;;;;;;41.03;21.38;99102.66;4940609;28;43218;-76
2023/06/11 08:23:36;;;;;;;5.65;5.25;;;;;;;41.05;20.36;99119.03;4974315;28;42029;-77
2023/06/11 08:26:04;;;;;;;5.55;4.55;;;;;;;40.87;20.15;99112.19;4940562;28;40266;-77
2023/06/11 08:28:32;;;;;;;5.82;5.32;;;;;;;40.77;20.03;99103.94;4956829;28;41932;-77
2023/06/11 08:31:00;;;;;;;5.32;4.93;;;;;;;40.83;20.74;99098.03;4973683;28;42809;-76
2023/06/11 08:33:28;;;;;;;5.93;5.20;;;;;;;40.56;21.18;99092.06;4957182;28;42019;-76
2023/06/11 08:35:55;;;;;;;5.30;4.90;;;;;;;40.38;21.54;99090.78;4941135;28;39935;-76
2023/06/11 08:38:23;;;;;;;5.78;5.20;;;;;;;40.25;21.21;99087.75;4941488;28;40832;-77
2023/06/11 08:40:53;;;;;;;6.05;5.53;;;;;;;39.91;21.16;99093.16;4941170;28;42974;-76
2023/06/11 08:43:21;;;;;;;6.43;5.45;;;;;;;39.31;21.38;99092.91;4940665;28;41320;-76
2023/06/11 08:45:49;;;;;;;5.97;5.38;;;;;;;38.88;21.71;99093.38;4974556;28;41931;-77
2023/06/11 08:48:20;;;;;;;6.13;4.93;;;;;;;38.38;22.98;99081.03;4939603;28;41881;-76
2023/06/11 08:50:49;;;;;;;5.15;4.75;;;;;;;37.81;23.11;99047.84;4954052;28;42960;-76
2023/06/11 08:53:17;;;;;;;6.18;5.45;;;;;;;37.90;22.61;99084.94;4973858;28;42993;-76
2023/06/11 08:55:45;;;;;;;5.63;4.95;;;;;;;37.68;22.56;99079.56;4974317;28;39920;-76
2023/06/11 08:58:14;;;;;;;6.13;5.10;;;;;;;37.11;23.61;99035.94;4956210;28;42752;-76
2023/06/11 09:00:42;;;;;;;5.13;4.70;;;;;;;37.02;25.12;99043.91;4956166;28;41790;-76
2023/06/11 09:03:10;;;;;;;5.80;5.30;;;;;;;37.00;25.33;99046.09;4972399;28;42703;-76
2023/06/11 09:05:38;;;;;;;10.30;5.20;;;;;;;37.00;24.07;99045.25;4956108;28;40461;-77
2023/06/11 09:08:09;;;;;;;5.77;5.27;;;;;;;37.23;22.89;99066.19;4955276;28;41833;-78
2023/06/11 09:10:48;;;;;;;6.67;5.00;;;;;;;37.05;21.74;99075.69;4955961;28;42838;-76
2023/06/11 09:13:17;;;;;;;5.40;5.00;;;;;;;36.79;22.39;99068.25;4955718;28;43143;-76
2023/06/11 09:15:49;;;;;;;5.97;5.07;;;;;;;36.67;22.09;99062.84;4956013;28;40037;-76
2023/06/11 09:18:22;;;;;;;5.70;4.43;;;;;;;36.83;20.59;99080.44;4955430;28;43072;-77
2023/06/11 09:20:51;;;;;;;4.73;4.23;;;;;;;36.67;20.92;99077.50;4954719;28;42806;-77
2023/06/11 09:23:28;;;;;;;5.60;4.63;;;;;;;36.67;21.10;99073.91;4972499;28;42247;-76
2023/06/11 09:25:56;;;;;;;5.67;4.60;;;;;;;36.84;21.37;99065.56;4939690;28;39123;-76
2023/06/11 09:28:30;;;;;;;4.83;4.40;;;;;;;36.86;20.39;99082.66;4955000;28;40664;-76
2023/06/11 09:30:59;;;;;;;4.77;4.27;;;;;;;36.79;21.31;99073.78;4969772;28;42898;-76
2023/06/11 09:33:28;;;;;;;5.90;4.17;;;;;;;37.18;20.40;99078.03;4955413;28;42086;-76
2023/06/11 09:35:56;;;;;;;4.87;4.40;;;;;;;37.93;19.58;99089.94;4973478;28;41641;-76
2023/06/11 09:38:24;;;;;;;4.85;4.20;;;;;;;38.93;20.11;99076.78;4939876;28;41849;-76
2023/06/11 09:40:55;;;;;;;4.85;4.13;;;;;;;39.75;19.03;99081.22;4955992;28;43746;-76
2023/06/11 09:43:24;;;;;;;5.07;4.40;;;;;;;40.58;17.80;99080.66;4940172;28;41292;-76
2023/06/11 09:45:55;;;;;;;5.00;4.53;;;;;;;40.89;16.46;99102.47;4956231;28;39456;-76
2023/06/11 09:48:23;;;;;;;8.10;7.45;;;;;;;41.40;17.06;99093.78;4956097;28;42609;-76
2023/06/11 09:50:52;;;;;;;5.18;4.32;;;;;;;41.81;16.01;99093.38;4955534;28;44256;-76
2023/06/11 09:53:20;;;;;;;4.68;4.28;;;;;;;42.72;15.28;99095.09;4973018;28;43036;-76
2023/06/11 09:55:50;;;;;;;4.70;4.30;;;;;;;43.57;15.40;99094.03;4955798;28;40033;-76
2023/06/11 09:58:32;;;;;;;;;;;;;;;;;;;;;
2023/06/11 10:01:02;;;;;;;4.90;4.05;;;;;;;43.91;14.80;99093.69;4954260;28;41973;-76
2023/06/11 10:03:31;;;;;;;4.65;4.13;;;;;;;43.40;13.97;99107.75;4954101;28;42409;-76
2023/06/11 10:06:00;;;;;;;3.42;3.22;;;;;;;42.76;14.92;99095.31;4954983;28;39342;-76
2023/06/11 10:08:33;;;;;;;4.22;3.92;;;;;;;41.96;14.50;99104.38;4954881;28;42143;-76
2023/06/11 10:11:03;;;;;;;4.20;3.80;;;;;;;41.04;15.28;99095.16;4951909;28;42811;-76
2023/06/11 10:13:32;;;;;;;6.13;4.05;;;;;;;40.13;15.47;99077.81;4954585;28;41256;-77
2023/06/11 10:16:02;;;;;;;4.82;3.95;;;;;;;39.71;16.01;99091.19;4972063;28;40674;-76
2023/06/11 10:18:30;;;;;;;4.60;4.20;;;;;;;39.16;15.81;99090.13;4954469;28;42042;-76
2023/06/11 10:21:00;;;;;;;4.70;4.20;;;;;;;38.82;16.79;99080.63;4954218;28;42823;-76
2023/06/11 10:23:37;;;;;;;3.75;3.45;;;;;;;38.59;16.40;99093.84;4938246;28;41922;-76
2023/06/11 10:26:05;;;;;;;4.20;3.75;;;;;;;38.10;15.64;99072.06;4938970;28;40608;-76
2023/06/11 10:28:37;;;;;;;4.93;3.53;;;;;;;37.97;15.77;99094.63;4938668;28;42149;-76
2023/06/11 10:31:06;;;;;;;4.32;3.90;;;;;;;37.51;15.65;99078.84;4954191;28;43195;-78
2023/06/11 10:33:44;;;;;;;5.68;3.90;;;;;;;37.38;16.41;99078.19;4939192;28;42177;-76
2023/06/11 10:36:23;;;;;;;4.20;3.42;;;;;;;37.23;15.25;99086.34;4969618;28;40755;-76
2023/06/11 10:38:51;;;;;;;3.60;3.28;;;;;;;37.12;15.46;99095.63;4955177;28;42336;-76
2023/06/11 10:41:28;;;;;;;3.72;3.35;;;;;;;36.99;16.13;99082.25;4954841;28;42917;-76
2023/06/11 10:43:57;;;;;;;4.22;3.60;;;;;;;37.01;16.18;99082.81;4954644;28;42919;-75
2023/06/11 10:46:26;;;;;;;4.40;4.00;;;;;;;37.00;16.26;99083.91;4954966;28;38810;-76
2023/06/11 10:48:55;;;;;;;4.32;4.03;;;;;;;36.69;17.51;99066.19;4954633;28;41832;-76
2023/06/11 10:51:23;;;;;;;4.43;4.07;;;;;;;36.58;17.35;99056.97;4938719;28;42196;-76
2023/06/11 10:53:59;;;;;;;4.10;3.70;;;;;;;36.65;17.01;99068.63;4955055;28;42354;-75
2023/06/11 10:56:27;;;;;;;4.07;3.60;;;;;;;36.51;17.55;99075.66;4969610;28;40659;-75
2023/06/11 10:58:55;;;;;;;3.90;3.60;;;;;;;36.37;17.13;99063.34;4954981;28;42676;-76
2023/06/11 11:01:22;;;;;;;3.97;3.60;;;;;;;36.24;16.53;99077.53;4937814;28;41989;-76
2023/06/11 11:03:53;;;;;;;4.37;3.33;;;;;;;36.00;17.68;99047.41;4952720;28;42020;-77
2023/06/11 11:06:28;;;;;;;3.73;3.40;;;;;;;36.21;18.59;99042.19;4951507;28;40736;-78
2023/06/11 11:08:56;;;;;;;3.97;3.60;;;;;;;36.30;17.38;99046.16;4951449;28;42655;-78
2023/06/11 11:11:24;;;;;;;4.70;3.63;;;;;;;36.41;19.73;99036.91;4952948;28;41775;-77
2023/06/11 11:13:52;;;;;;;4.37;4.03;;;;;;;36.46;17.91;99049.94;4937814;28;41251;-77
2023/06/11 11:16:21;;;;;;;4.07;3.77;;;;;;;36.41;18.18;99041.59;4971134;28;40861;-77
2023/06/11 11:18:51;;;;;;;4.30;3.50;;;;;;;36.49;19.53;99027.31;4971505;28;41797;-77
2023/06/11 11:21:19;;;;;;;4.10;3.80;;;;;;;36.59;18.76;99038.50;4952996;28;43071;-79
2023/06/11 11:23:48;;;;;;;3.80;3.37;;;;;;;36.59;18.29;99041.25;4937821;28;42872;-77
2023/06/11 11:26:16;;;;;;;4.17;3.77;;;;;;;36.53;17.58;99045.88;4971450;28;40924;-78
2023/06/11 11:28:44;;;;;;;4.20;3.67;;;;;;;36.18;18.34;98988.38;4953857;28;41673;-78
2023/06/11 11:31:17;;;;;;;3.93;3.63;;;;;;;36.48;17.45;99043.06;4953422;28;42966;-77
2023/06/11 11:33:45;;;;;;;4.20;3.83;;;;;;;36.59;18.42;99032.97;4950983;28;42715;-78
2023/06/11 11:36:15;;;;;;;4.65;4.18;;;;;;;36.69;19.46;99028.44;4971238;28;40222;-76
2023/06/11 11:38:42;;;;;;;3.70;3.40;;;;;;;36.74;17.89;99037.81;4954285;28;41756;-76
2023/06/11 11:41:10;;;;;;;4.07;3.60;;;;;;;37.01;17.04;99035.88;4937812;28;42181;-76
2023/06/11 11:43:40;;;;;;;4.40;3.33;;;;;;;37.24;18.52;99026.41;4971696;28;43648;-78
2023/06/11 11:46:16;;;;;;;3.58;3.28;;;;;;;37.42;16.10;99047.28;4954048;28;40049;-77
2023/06/11 11:48:44;;;;;;;4.13;3.72;;;;;;;37.57;16.79;99041.88;4971772;28;41735;-76